Time;durP1;ratioP1;P1;durP2;ratioP2;P2;SDS_P1;SDS_P2;PMS_P1;PMS_P2;Temp;Humidity;BMP_temperature;BMP_pressure;BME280_temperature;BME280_humidity;BME280_pressure;Samples;Min_cycle;Max_cycle;Signal;HPM_P1;HPM_P2
2022/11/22 00:00:17;;;;;;;29.25;11.27;;;;;;;-2.66;100.00;98614.69;5153407;27;20103;-55
2022/11/22 00:02:44;;;;;;;28.52;10.18;;;;;;;-2.56;100.00;98608.38;5153314;27;20073;-52
2022/11/22 00:05:11;;;;;;;23.77;9.88;;;;;;;-2.23;100.00;98601.13;5153203;27;20119;-54
2022/11/22 00:07:38;;;;;;;28.83;11.25;;;;;;;-2.31;100.00;98609.06;5153231;27;20478;-53
2022/11/22 00:10:06;;;;;;;26.67;12.02;;;;;;;-1.99;100.00;98613.63;5152886;27;20561;-52
2022/11/22 00:12:32;;;;;;;29.58;12.48;;;;;;;-2.01;100.00;98613.91;5152997;27;20138;-53
2022/11/22 00:14:59;;;;;;;22.02;9.07;;;;;;;-2.33;100.00;98620.09;5153052;27;20134;-54
2022/11/22 00:17:26;;;;;;;28.50;10.13;;;;;;;-2.20;100.00;98610.47;5152925;27;20046;-53
2022/11/22 00:19:52;;;;;;;30.08;11.63;;;;;;;-1.83;100.00;98611.44;5152849;27;20078;-54
2022/11/22 00:22:18;;;;;;;28.50;10.80;;;;;;;-1.96;100.00;98619.19;5152906;27;20137;-52
2022/11/22 00:24:45;;;;;;;23.65;9.65;;;;;;;-2.07;100.00;98628.50;5152852;27;20611;-57
2022/11/22 00:27:12;;;;;;;28.60;11.13;;;;;;;-1.82;100.00;98623.78;5152124;27;20107;-57
2022/11/22 00:29:38;;;;;;;33.80;12.10;;;;;;;-1.82;100.00;98635.34;5153098;27;20051;-56
2022/11/22 00:32:05;;;;;;;26.83;11.95;;;;;;;-2.13;100.00;98638.56;5152833;27;20108;-57
2022/11/22 00:34:31;;;;;;;28.45;11.30;;;;;;;-1.84;100.00;98644.78;5152782;27;20095;-55
2022/11/22 00:36:58;;;;;;;24.13;10.75;;;;;;;-2.21;100.00;98647.25;5152588;27;20462;-56
2022/11/22 00:39:24;;;;;;;28.92;11.55;;;;;;;-2.22;100.00;98637.63;5152587;27;20058;-57
2022/11/22 00:41:50;;;;;;;25.17;9.55;;;;;;;-2.07;100.00;98638.44;5152496;27;20509;-55
2022/11/22 00:44:17;;;;;;;23.58;10.88;;;;;;;-2.24;100.00;98629.06;5152520;27;20089;-53
2022/11/22 00:46:43;;;;;;;26.75;10.93;;;;;;;-2.18;100.00;98632.47;5152483;27;20489;-54
2022/11/22 00:49:10;;;;;;;21.98;10.90;;;;;;;-2.32;100.00;98621.69;5152361;27;20084;-53
2022/11/22 00:51:36;;;;;;;25.00;11.73;;;;;;;-2.39;100.00;98621.25;5152429;27;20046;-55
2022/11/22 00:54:03;;;;;;;28.05;10.05;;;;;;;-2.19;100.00;98614.75;5152597;27;20052;-54
2022/11/22 00:56:30;;;;;;;27.15;13.25;;;;;;;-2.26;100.00;98615.13;5152112;27;20046;-53
2022/11/22 00:58:57;;;;;;;21.83;10.77;;;;;;;-1.99;100.00;98609.03;5152215;27;20043;-55
2022/11/22 01:01:23;;;;;;;28.35;10.38;;;;;;;-1.79;100.00;98618.63;5152067;27;20051;-54
2022/11/22 01:03:50;;;;;;;26.65;11.77;;;;;;;-1.91;100.00;98623.66;5152235;27;20069;-53
2022/11/22 01:06:17;;;;;;;26.70;11.30;;;;;;;-1.87;100.00;98624.66;5152158;27;20050;-53
2022/11/22 01:08:43;;;;;;;27.73;10.13;;;;;;;-1.84;100.00;98623.28;5152053;27;20047;-55
2022/11/22 01:11:11;;;;;;;29.75;11.55;;;;;;;-2.02;100.00;98625.75;5152031;27;20528;-54
2022/11/22 01:13:37;;;;;;;28.15;12.10;;;;;;;-2.13;100.00;98613.59;5151890;27;20190;-54
2022/11/22 01:16:06;;;;;;;27.58;10.40;;;;;;;-2.26;100.00;98612.47;5151842;27;20046;-52
2022/11/22 01:18:32;;;;;;;26.25;11.30;;;;;;;-2.04;100.00;98601.06;5151935;27;20127;-54
2022/11/22 01:20:59;;;;;;;27.48;12.93;;;;;;;-2.22;100.00;98602.72;5151809;27;20621;-54
2022/11/22 01:23:26;;;;;;;24.92;11.45;;;;;;;-2.34;100.00;98599.69;5151801;27;20494;-52
2022/11/22 01:25:53;;;;;;;29.27;11.57;;;;;;;-2.36;100.00;98591.16;5151795;27;20141;-54
2022/11/22 01:28:19;;;;;;;29.92;14.05;;;;;;;-1.99;100.00;98586.75;5151696;27;20097;-55
2022/11/22 01:30:49;;;;;;;24.73;11.43;;;;;;;-2.18;100.00;98600.25;5151843;27;20050;-54
2022/11/22 01:33:15;;;;;;;29.73;10.65;;;;;;;-1.95;100.00;98593.91;5151581;27;20163;-55
2022/11/22 01:35:42;;;;;;;29.48;11.80;;;;;;;-1.95;100.00;98598.50;5151566;27;20087;-55
2022/11/22 01:38:08;;;;;;;23.15;10.15;;;;;;;-2.17;100.00;98599.13;5150919;27;20047;-57
2022/11/22 01:40:35;;;;;;;35.35;12.68;;;;;;;-1.98;100.00;98594.50;5151120;27;20047;-54
2022/11/22 01:43:02;;;;;;;33.63;12.40;;;;;;;-2.09;100.00;98589.63;5151535;27;20142;-52
2022/11/22 01:45:53;;;;;;;25.77;11.52;;;;;;;-1.80;100.00;98590.16;5151550;27;20086;-53
2022/11/22 01:48:37;;;;;;;28.38;12.38;;;;;;;-2.00;100.00;98590.50;5151327;27;20047;-58
2022/11/22 01:51:09;;;;;;;32.10;13.27;;;;;;;-2.06;100.00;98587.16;5151478;27;20057;-53
2022/11/22 01:53:38;;;;;;;28.48;12.63;;;;;;;-1.78;100.00;98581.78;5151337;27;20584;-53
2022/11/22 01:56:10;;;;;;;31.67;13.13;;;;;;;-2.02;100.00;98588.13;5151619;27;20511;-53
2022/11/22 01:58:41;;;;;;;27.23;12.00;;;;;;;-2.02;100.00;98596.19;5151299;27;20086;-54
2022/11/22 02:01:07;;;;;;;32.13;12.60;;;;;;;-1.92;100.00;98590.63;5151439;27;20142;-55
2022/11/22 02:03:36;;;;;;;28.67;12.80;;;;;;;-1.95;100.00;98598.50;5151333;27;20061;-53
2022/11/22 02:06:04;;;;;;;31.13;11.48;;;;;;;-2.09;100.00;98593.09;5151415;27;20544;-56
2022/11/22 02:08:37;;;;;;;27.63;12.88;;;;;;;-1.94;100.00;98595.50;5151196;27;20050;-54
2022/11/22 02:11:05;;;;;;;35.85;13.00;;;;;;;-2.00;100.00;98594.03;5151031;27;20078;-54
2022/11/22 02:13:35;;;;;;;25.67;10.75;;;;;;;-1.96;100.00;98592.34;5151228;27;20494;-56
2022/11/22 02:16:03;;;;;;;26.73;11.98;;;;;;;-1.98;100.00;98594.50;5151385;27;20055;-55
2022/11/22 02:18:29;;;;;;;34.05;12.93;;;;;;;-1.89;100.00;98586.56;5151685;27;20053;-55
2022/11/22 02:20:58;;;;;;;30.55;12.65;;;;;;;-1.82;100.00;98581.59;5151353;27;20051;-54
2022/11/22 02:23:32;;;;;;;25.33;10.60;;;;;;;-1.67;100.00;98586.69;5151270;27;20055;-57
2022/11/22 02:26:00;;;;;;;27.73;12.02;;;;;;;-1.82;100.00;98586.97;5151016;27;20501;-56
2022/11/22 02:28:30;;;;;;;18.20;8.55;;;;;;;-2.02;100.00;98593.50;5151289;27;20046;-53
2022/11/22 02:30:56;;;;;;;29.55;12.43;;;;;;;-1.96;100.00;98597.69;5150804;27;20069;-55
2022/11/22 02:33:22;;;;;;;25.33;11.63;;;;;;;-1.60;100.00;98598.91;5151197;27;20050;-54
2022/11/22 02:35:49;;;;;;;26.08;11.55;;;;;;;-1.81;100.00;98596.63;5151233;27;20513;-53
2022/11/22 02:38:19;;;;;;;26.48;11.55;;;;;;;-1.72;100.00;98599.41;5150718;27;20527;-52
2022/11/22 02:40:51;;;;;;;28.70;11.50;;;;;;;-1.55;100.00;98591.56;5150947;27;20420;-53
2022/11/22 02:43:21;;;;;;;29.48;12.15;;;;;;;-1.60;100.00;98598.91;5150929;27;20057;-56
2022/11/22 02:45:48;;;;;;;28.60;12.32;;;;;;;-1.75;100.00;98597.31;5151301;27;20057;-55
2022/11/22 02:48:16;;;;;;;21.88;11.38;;;;;;;-1.80;100.00;98592.03;5151119;27;20421;-54
2022/11/22 02:50:43;;;;;;;25.85;11.57;;;;;;;-1.78;100.00;98593.34;5152881;27;20084;-53
2022/11/22 02:53:11;;;;;;;25.83;11.82;;;;;;;-1.71;100.00;98584.88;5154274;27;20054;-53
2022/11/22 02:55:37;;;;;;;31.27;12.20;;;;;;;-1.94;100.00;98583.97;5154516;27;20107;-53
2022/11/22 02:58:05;;;;;;;26.38;11.30;;;;;;;-1.54;100.00;98584.28;5154272;27;20137;-53
2022/11/22 03:00:32;;;;;;;23.52;10.07;;;;;;;-1.63;100.00;98581.53;5154268;27;20054;-53
2022/11/22 03:02:58;;;;;;;26.20;11.43;;;;;;;-1.80;100.00;98566.00;5153968;27;20090;-54
2022/11/22 03:05:25;;;;;;;25.02;10.88;;;;;;;-1.75;100.00;98571.25;5154003;27;20101;-53
2022/11/22 03:07:51;;;;;;;22.77;11.18;;;;;;;-1.66;100.00;98574.03;5154311;27;20043;-53
2022/11/22 03:10:17;;;;;;;28.48;11.43;;;;;;;-1.62;100.00;98561.59;5154416;27;20500;-53
2022/11/22 03:12:44;;;;;;;25.73;10.52;;;;;;;-1.70;100.00;98555.03;5154376;27;20046;-54
2022/11/22 03:15:11;;;;;;;28.38;11.15;;;;;;;-1.62;100.00;98556.22;5154107;27;20089;-56
2022/11/22 03:17:38;;;;;;;27.92;11.95;;;;;;;-1.51;100.00;98551.44;5154233;27;20094;-55
2022/11/22 03:20:05;;;;;;;24.25;9.75;;;;;;;-1.56;100.00;98552.34;5153741;27;20047;-53
2022/11/22 03:22:31;;;;;;;31.02;11.13;;;;;;;-1.64;100.00;98536.91;5153869;27;20060;-53
2022/11/22 03:24:57;;;;;;;27.42;12.02;;;;;;;-1.74;100.00;98548.66;5153651;27;20133;-53
2022/11/22 03:27:24;;;;;;;24.23;11.30;;;;;;;-1.90;100.00;98539.28;5153708;27;20053;-54
2022/11/22 03:29:50;;;;;;;23.55;11.77;;;;;;;-1.72;100.00;98541.09;5153518;27;20519;-54
2022/11/22 03:32:16;;;;;;;22.05;11.23;;;;;;;-1.53;100.00;98550.94;5153493;27;20089;-52
2022/11/22 03:34:43;;;;;;;25.90;10.27;;;;;;;-1.65;100.00;98556.81;5153752;27;20047;-56
2022/11/22 03:37:09;;;;;;;22.92;11.27;;;;;;;-1.68;100.00;98549.34;5153583;27;20146;-55
2022/11/22 03:39:36;;;;;;;22.88;10.73;;;;;;;-1.78;100.00;98555.72;5153484;27;20046;-54
2022/11/22 03:42:02;;;;;;;20.77;9.50;;;;;;;-1.88;100.00;98555.91;5153589;27;20054;-53
2022/11/22 03:44:28;;;;;;;25.25;11.45;;;;;;;-1.62;100.00;98560.81;5153759;27;20046;-54
2022/11/22 03:46:54;;;;;;;23.30;11.52;;;;;;;-1.46;100.00;98549.44;5153394;27;20130;-54
2022/11/22 03:49:21;;;;;;;25.92;11.30;;;;;;;-1.40;100.00;98538.56;5153730;27;20413;-53
2022/11/22 03:51:48;;;;;;;23.60;11.48;;;;;;;-2.13;100.00;98531.13;5153317;27;20189;-56
2022/11/22 03:54:15;;;;;;;26.83;11.48;;;;;;;-2.03;100.00;98532.84;5153274;27;20096;-56
2022/11/22 03:56:41;;;;;;;20.08;9.20;;;;;;;-1.72;100.00;98548.38;5153267;27;20078;-56
2022/11/22 03:59:07;;;;;;;25.17;10.63;;;;;;;-2.31;100.00;98537.34;5153514;27;20051;-52
2022/11/22 04:01:34;;;;;;;24.15;10.70;;;;;;;-1.91;100.00;98543.06;5151980;27;20486;-55
2022/11/22 04:04:00;;;;;;;26.92;11.15;;;;;;;-1.84;100.00;98550.75;5153261;27;20055;-56
2022/11/22 04:06:26;;;;;;;32.58;13.38;;;;;;;-1.83;100.00;98555.84;5152870;27;20425;-54
2022/11/22 04:08:53;;;;;;;29.88;11.85;;;;;;;-1.66;100.00;98561.41;5153035;27;20497;-54
2022/11/22 04:11:20;;;;;;;25.10;10.65;;;;;;;-2.01;100.00;98556.69;5153252;27;20107;-56
2022/11/22 04:16:30;;;;;;;28.98;12.85;;;;;;;-1.87;100.00;98560.19;5153166;27;20574;-59
2022/11/22 04:18:56;;;;;;;22.65;10.40;;;;;;;-1.59;100.00;98557.53;5152784;27;20082;-53
2022/11/22 04:21:34;;;;;;;30.30;11.32;;;;;;;-1.73;100.00;98554.84;5152993;27;20394;-53
2022/11/22 04:26:43;;;;;;;28.90;11.73;;;;;;;-1.69;100.00;98550.44;5107099;27;20129;-54
2022/11/22 04:29:09;;;;;;;22.92;10.25;;;;;;;-1.80;100.00;98549.88;5152813;27;20103;-54
2022/11/22 04:34:20;;;;;;;;;;;;;;;-2.06;100.00;98544.16;5153054;27;20543;-54
2022/11/22 04:36:46;;;;;;;32.85;12.27;;;;;;;-2.10;100.00;98545.03;5152490;27;19926;-53
2022/11/22 04:39:13;;;;;;;26.05;12.23;;;;;;;-1.93;100.00;98547.97;5153127;27;20053;-54
2022/11/22 04:41:39;;;;;;;28.15;12.65;;;;;;;-2.02;100.00;98558.59;5152637;27;20066;-54
2022/11/22 04:46:50;;;;;;;26.35;12.43;;;;;;;-1.85;100.00;98543.78;5152434;27;20081;-55
2022/11/22 04:49:17;;;;;;;27.40;12.15;;;;;;;-1.74;100.00;98556.72;5152133;27;20043;-54
2022/11/22 04:54:28;;;;;;;25.55;10.90;;;;;;;-1.61;100.00;98559.69;5152190;27;20049;-54
2022/11/22 04:56:54;;;;;;;21.42;9.48;;;;;;;-1.82;100.00;98552.03;5152292;27;20590;-54
2022/11/22 04:59:21;;;;;;;25.10;9.95;;;;;;;-1.57;100.00;98553.41;5151954;27;20051;-55
2022/11/22 05:01:47;;;;;;;22.67;10.63;;;;;;;-1.90;100.00;98552.72;5152124;27;20430;-53
2022/11/22 05:04:14;;;;;;;27.27;12.05;;;;;;;-1.56;100.00;98557.72;5151979;27;20082;-53
2022/11/22 05:06:40;;;;;;;26.90;10.48;;;;;;;-1.90;100.00;98553.53;5152222;27;20142;-53
2022/11/22 05:09:06;;;;;;;20.85;8.98;;;;;;;-1.65;100.00;98548.75;5152138;27;20046;-53
2022/11/22 05:11:34;;;;;;;28.33;11.50;;;;;;;-1.75;100.00;98552.44;5151933;27;20175;-55
2022/11/22 05:14:00;;;;;;;21.52;9.88;;;;;;;-2.08;100.00;98553.59;5151770;27;20097;-56
2022/11/22 05:16:26;;;;;;;28.52;11.18;;;;;;;-1.79;100.00;98556.81;5151938;27;20078;-53
2022/11/22 05:18:58;;;;;;;26.83;11.90;;;;;;;-1.83;100.00;98552.31;5152027;27;20098;-54
2022/11/22 05:21:25;;;;;;;26.08;11.50;;;;;;;-1.84;100.00;98564.97;5151844;27;20073;-58
2022/11/22 05:23:54;;;;;;;29.10;10.90;;;;;;;-1.65;100.00;98564.88;5151961;27;20492;-54
2022/11/22 05:26:21;;;;;;;25.80;11.38;;;;;;;-1.71;100.00;98564.19;5151616;27;20051;-53
2022/11/22 05:28:48;;;;;;;33.75;11.75;;;;;;;-1.81;100.00;98566.25;5151607;27;20092;-52
2022/11/22 05:31:16;;;;;;;28.98;11.93;;;;;;;-1.53;100.00;98578.63;5151408;27;20502;-54
2022/11/22 05:33:45;;;;;;;22.90;10.73;;;;;;;-1.66;100.00;98566.78;5151391;27;20133;-54
2022/11/22 05:36:12;;;;;;;24.23;10.00;;;;;;;-1.67;100.00;98564.38;5151463;27;20133;-54
2022/11/22 05:38:38;;;;;;;26.88;11.18;;;;;;;-1.76;100.00;98568.88;5151510;27;20134;-54
2022/11/22 05:41:06;;;;;;;28.30;9.98;;;;;;;-1.69;100.00;98566.59;5151685;27;20047;-58
2022/11/22 05:43:34;;;;;;;21.63;10.27;;;;;;;-1.66;100.00;98572.16;5151133;27;20058;-55
2022/11/22 05:46:09;;;;;;;24.25;10.48;;;;;;;-1.58;100.00;98564.47;5151774;27;20058;-59
2022/11/22 05:48:37;;;;;;;19.38;8.10;;;;;;;-1.78;100.00;98576.41;5151375;27;20568;-57
2022/11/22 05:51:04;;;;;;;24.42;7.93;;;;;;;-1.78;100.00;98571.84;5151635;27;20192;-54
2022/11/22 05:53:31;;;;;;;20.95;10.95;;;;;;;-1.71;100.00;98584.88;5150988;27;20055;-55
2022/11/22 05:55:57;;;;;;;24.02;10.43;;;;;;;-1.75;100.00;98587.38;5151313;27;20497;-54
2022/11/22 05:58:24;;;;;;;17.88;8.10;;;;;;;-1.78;100.00;98587.97;5151170;27;20561;-59
2022/11/22 06:00:50;;;;;;;24.20;10.93;;;;;;;-1.83;100.00;98587.25;5151237;27;20051;-54
2022/11/22 06:03:17;;;;;;;23.52;10.13;;;;;;;-2.02;100.00;98579.28;5151268;27;20050;-55
2022/11/22 06:05:50;;;;;;;23.35;10.98;;;;;;;-1.85;100.00;98589.47;5151052;27;20042;-54
2022/11/22 06:08:16;;;;;;;28.70;11.23;;;;;;;-1.84;100.00;98591.84;5151330;27;20417;-55
2022/11/22 06:10:43;;;;;;;23.50;9.93;;;;;;;-1.89;100.00;98586.56;5150874;27;20370;-56
2022/11/22 06:13:09;;;;;;;22.05;11.13;;;;;;;-1.93;100.00;98593.63;5151241;27;20051;-58
2022/11/22 06:15:35;;;;;;;26.85;11.77;;;;;;;-1.98;100.00;98588.34;5150816;27;20139;-55
2022/11/22 06:18:02;;;;;;;22.38;10.15;;;;;;;-2.08;100.00;98591.22;5151244;27;20042;-54
2022/11/22 06:20:29;;;;;;;22.27;11.32;;;;;;;-1.74;100.00;98597.00;5150846;27;20073;-55
2022/11/22 06:22:57;;;;;;;25.95;11.23;;;;;;;-1.86;100.00;98588.66;5150842;27;20050;-58
2022/11/22 06:25:23;;;;;;;22.85;10.63;;;;;;;-1.91;100.00;98594.91;5152074;27;20085;-56
2022/11/22 06:27:50;;;;;;;28.95;11.88;;;;;;;-1.67;100.00;98593.94;5154350;27;20102;-55
2022/11/22 06:30:16;;;;;;;22.80;12.50;;;;;;;-1.63;100.00;98597.66;5154648;27;20501;-54
2022/11/22 06:32:42;;;;;;;24.02;11.15;;;;;;;-1.58;100.00;98602.91;5154312;27;20057;-57
2022/11/22 06:35:09;;;;;;;29.05;12.05;;;;;;;-1.76;100.00;98609.19;5154459;27;20053;-57
2022/11/22 06:37:36;;;;;;;20.67;10.68;;;;;;;-1.73;100.00;98613.97;5154232;27;20051;-55
2022/11/22 06:40:02;;;;;;;26.02;10.10;;;;;;;-1.59;100.00;98611.28;5154479;27;20042;-56
2022/11/22 06:42:29;;;;;;;23.38;12.10;;;;;;;-1.62;100.00;98615.34;5154508;27;20050;-54
2022/11/22 06:44:55;;;;;;;25.42;12.18;;;;;;;-1.55;100.00;98615.75;5154429;27;20095;-54
2022/11/22 06:47:21;;;;;;;22.95;9.95;;;;;;;-1.57;100.00;98609.06;5154034;27;20521;-56
2022/11/22 06:49:47;;;;;;;19.35;9.15;;;;;;;-1.60;100.00;98609.66;5154207;27;20043;-59
2022/11/22 06:52:14;;;;;;;23.40;10.38;;;;;;;-1.44;100.00;98603.69;5154047;27;20133;-52
2022/11/22 06:54:41;;;;;;;24.02;9.52;;;;;;;-1.20;100.00;98598.13;5154224;27;20078;-53
2022/11/22 06:57:07;;;;;;;24.40;11.07;;;;;;;-1.17;100.00;98591.31;5154491;27;20074;-53
2022/11/22 06:59:34;;;;;;;23.13;10.48;;;;;;;-1.16;100.00;98587.56;5154151;27;20573;-52
2022/11/22 07:02:00;;;;;;;21.08;10.35;;;;;;;-1.07;100.00;98585.72;5154366;27;20053;-52
2022/11/22 07:04:26;;;;;;;19.15;9.55;;;;;;;-0.98;100.00;98570.47;5154237;27;20055;-56
2022/11/22 07:06:53;;;;;;;18.50;9.23;;;;;;;-0.95;100.00;98544.84;5154227;27;20091;-52
2022/11/22 07:09:19;;;;;;;19.33;9.48;;;;;;;-0.97;100.00;98509.38;5153777;27;20047;-52
2022/11/22 07:11:46;;;;;;;23.67;8.48;;;;;;;-0.98;100.00;98497.81;5154008;27;20129;-56
2022/11/22 07:14:12;;;;;;;23.63;10.18;;;;;;;-0.88;100.00;98480.63;5153740;27;20054;-52
2022/11/22 07:16:39;;;;;;;17.05;8.95;;;;;;;-0.82;100.00;98452.50;5153686;27;20054;-52
2022/11/22 07:19:06;;;;;;;18.42;8.70;;;;;;;-0.90;100.00;98433.59;5153562;27;20053;-53
2022/11/22 07:21:32;;;;;;;18.42;9.35;;;;;;;-0.98;100.00;98433.25;5153509;27;20047;-53
2022/11/22 07:23:58;;;;;;;19.52;8.38;;;;;;;-0.80;100.00;98417.19;5153821;27;20069;-54
2022/11/22 07:26:27;;;;;;;22.13;8.98;;;;;;;-1.03;100.00;98365.34;5153432;27;20054;-49
2022/11/22 07:28:54;;;;;;;19.38;8.88;;;;;;;-1.13;100.00;98366.38;5153559;27;20043;-49
2022/11/22 07:31:20;;;;;;;16.63;8.98;;;;;;;-1.13;100.00;98361.00;5153196;27;20055;-52
2022/11/22 07:33:47;;;;;;;16.15;8.32;;;;;;;-1.04;100.00;98379.88;5153416;27;20051;-50
2022/11/22 07:36:15;;;;;;;19.60;9.75;;;;;;;-1.29;100.00;98360.56;5153125;27;20553;-52
2022/11/22 07:38:42;;;;;;;24.27;8.52;;;;;;;-1.39;100.00;98374.28;5153654;27;20078;-50
2022/11/22 07:41:08;;;;;;;20.15;9.77;;;;;;;-1.37;100.00;98385.50;5152961;27;20429;-51
2022/11/22 07:43:35;;;;;;;22.65;9.90;;;;;;;-1.27;100.00;98382.56;5153215;27;20078;-50
2022/11/22 07:46:04;;;;;;;20.70;10.10;;;;;;;-1.07;100.00;98364.34;5152916;27;20051;-50
2022/11/22 07:48:30;;;;;;;18.27;9.32;;;;;;;-1.14;100.00;98329.00;5153098;27;20137;-51
2022/11/22 07:50:56;;;;;;;19.67;8.70;;;;;;;-1.10;100.00;98319.22;5153105;27;20529;-50
2022/11/22 07:53:23;;;;;;;21.60;9.63;;;;;;;-1.20;100.00;98302.28;5152938;27;20084;-52
2022/11/22 07:55:49;;;;;;;20.27;9.52;;;;;;;-1.44;100.00;98283.75;5153251;27;20129;-54
2022/11/22 07:58:15;;;;;;;21.83;9.65;;;;;;;-1.17;100.00;98318.88;5152833;27;20057;-51
2022/11/22 08:00:41;;;;;;;14.48;7.90;;;;;;;-1.14;100.00;98312.88;5153163;27;20507;-51
2022/11/22 08:03:09;;;;;;;17.25;8.18;;;;;;;-1.28;100.00;98278.78;5152642;27;20068;-50
2022/11/22 08:05:35;;;;;;;21.27;9.55;;;;;;;-1.50;100.00;98303.00;5153247;27;20549;-52
2022/11/22 08:08:01;;;;;;;15.93;7.97;;;;;;;-1.40;100.00;98326.94;5152877;27;20069;-50
2022/11/22 08:10:27;;;;;;;17.65;8.52;;;;;;;-1.30;100.00;98318.66;5153077;27;20074;-52
2022/11/22 08:12:58;;;;;;;17.83;9.88;;;;;;;-1.24;100.00;98317.41;5152595;27;20046;-52
2022/11/22 08:15:25;;;;;;;19.85;8.40;;;;;;;-1.43;100.00;98281.88;5152800;27;20137;-50
2022/11/22 08:17:51;;;;;;;18.95;9.25;;;;;;;-1.67;100.00;98283.00;5152498;27;20055;-53
2022/11/22 08:20:18;;;;;;;19.67;9.68;;;;;;;-1.21;100.00;98300.66;5152589;27;20047;-53
2022/11/22 08:22:44;;;;;;;16.55;7.28;;;;;;;-1.11;100.00;98288.06;5152491;27;20080;-53
2022/11/22 08:25:11;;;;;;;21.83;8.85;;;;;;;-1.25;100.00;98283.56;5152559;27;20187;-50
2022/11/22 08:27:39;;;;;;;21.10;10.05;;;;;;;-1.42;100.00;98268.13;5152675;27;20099;-50
2022/11/22 08:30:06;;;;;;;19.50;9.93;;;;;;;-1.47;100.00;98246.72;5152341;27;20046;-50
2022/11/22 08:32:33;;;;;;;15.25;7.50;;;;;;;-1.18;100.00;98256.22;5152534;27;20050;-50
2022/11/22 08:34:59;;;;;;;18.52;8.68;;;;;;;-1.62;100.00;98219.47;5152278;27;20133;-53
2022/11/22 08:37:26;;;;;;;16.98;8.77;;;;;;;-1.33;100.00;98256.59;5152651;27;20130;-51
2022/11/22 08:39:52;;;;;;;18.10;9.73;;;;;;;-1.22;100.00;98247.19;5152288;27;20053;-52
2022/11/22 08:42:19;;;;;;;17.85;9.23;;;;;;;-1.08;100.00;98222.88;5152012;27;20531;-54
2022/11/22 08:44:45;;;;;;;15.35;8.00;;;;;;;-1.47;100.00;98176.06;5152257;27;20086;-53
2022/11/22 08:47:11;;;;;;;13.20;7.50;;;;;;;-1.47;100.00;98209.09;5151981;27;20050;-52
2022/11/22 08:49:37;;;;;;;20.33;9.07;;;;;;;-1.29;100.00;98228.03;5151903;27;20133;-54
2022/11/22 08:52:04;;;;;;;15.82;8.43;;;;;;;-1.23;100.00;98213.34;5152072;27;20047;-57
2022/11/22 08:54:31;;;;;;;18.48;8.75;;;;;;;-1.18;100.00;98202.44;5152167;27;20106;-56
2022/11/22 08:56:57;;;;;;;20.58;10.70;;;;;;;-1.33;100.00;98186.69;5152174;27;20130;-53
2022/11/22 08:59:23;;;;;;;16.48;8.65;;;;;;;-1.41;100.00;98182.88;5152026;27;20051;-58
2022/11/22 09:01:50;;;;;;;14.82;8.65;;;;;;;-1.47;100.00;98214.47;5151805;27;20093;-57
2022/11/22 09:04:16;;;;;;;18.83;8.85;;;;;;;-1.51;100.00;98231.53;5152106;27;20089;-54
2022/11/22 09:06:42;;;;;;;21.05;8.77;;;;;;;-1.23;100.00;98251.78;5152029;27;20129;-57
2022/11/22 09:09:09;;;;;;;19.92;9.50;;;;;;;-1.19;100.00;98225.06;5152027;27;20101;-54
2022/11/22 09:11:36;;;;;;;17.42;8.73;;;;;;;-1.49;100.00;98213.22;5151841;27;20104;-53
2022/11/22 09:14:02;;;;;;;14.10;8.05;;;;;;;-0.99;100.00;98242.53;5151714;27;20564;-54
2022/11/22 09:16:28;;;;;;;17.70;9.05;;;;;;;-0.82;100.00;98196.84;5152062;27;20137;-54
2022/11/22 09:18:55;;;;;;;18.20;9.45;;;;;;;-0.82;100.00;98134.94;5151749;27;20091;-54
2022/11/22 09:21:22;;;;;;;16.98;9.55;;;;;;;-1.02;100.00;98104.06;5151903;27;20053;-54
2022/11/22 09:23:50;;;;;;;16.27;8.75;;;;;;;-0.78;100.00;98083.97;5151474;27;20059;-50
2022/11/22 09:26:18;;;;;;;19.10;9.32;;;;;;;-0.98;100.00;98036.97;5151758;27;20141;-50
2022/11/22 09:28:46;;;;;;;16.13;8.32;;;;;;;-1.11;100.00;98052.16;5151367;27;20047;-48
2022/11/22 09:31:14;;;;;;;15.00;8.23;;;;;;;-1.28;100.00;98063.69;5151629;27;20086;-48
2022/11/22 09:33:43;;;;;;;14.50;8.25;;;;;;;-1.10;100.00;98090.59;5151170;27;20584;-51
2022/11/22 09:36:12;;;;;;;18.40;7.97;;;;;;;-1.00;100.00;98107.25;5151559;27;20053;-52
2022/11/22 09:38:38;;;;;;;15.38;8.75;;;;;;;-1.26;100.00;98090.25;5151233;27;20050;-51
2022/11/22 09:41:23;;;;;;;14.73;7.68;;;;;;;-1.52;100.00;98082.13;5151094;27;20051;-49
2022/11/22 09:43:59;;;;;;;18.45;9.18;;;;;;;-1.20;100.00;98129.31;5151254;27;20085;-49
2022/11/22 09:46:39;;;;;;;17.73;8.45;;;;;;;-1.27;100.00;98110.19;5151312;27;20173;-48
2022/11/22 09:49:24;;;;;;;16.17;7.90;;;;;;;-1.53;100.00;98121.66;5151586;27;20093;-48
2022/11/22 09:51:57;;;;;;;15.15;8.10;;;;;;;-1.31;100.00;98163.00;5151155;27;20261;-48
2022/11/22 09:54:27;;;;;;;14.35;7.72;;;;;;;-1.44;100.00;98172.75;5151216;27;20047;-48
2022/11/22 09:56:58;;;;;;;16.55;9.07;;;;;;;-1.33;100.00;98198.28;5151304;27;20047;-50
2022/11/22 09:59:29;;;;;;;17.77;8.85;;;;;;;-1.26;100.00;98190.56;5149907;27;20086;-50
2022/11/22 10:02:02;;;;;;;14.32;8.50;;;;;;;-1.27;100.00;98172.81;5151111;27;20091;-50
2022/11/22 10:04:34;;;;;;;17.98;7.85;;;;;;;-1.10;100.00;98182.03;5150903;27;20145;-50
2022/11/22 10:07:05;;;;;;;14.02;8.10;;;;;;;-1.20;100.00;98167.78;5150987;27;20076;-50
2022/11/22 10:09:39;;;;;;;17.98;7.93;;;;;;;-1.07;100.00;98168.75;5150888;27;20042;-52
2022/11/22 10:12:11;;;;;;;16.83;8.45;;;;;;;-1.38;100.00;98154.59;5150945;27;20082;-50
2022/11/22 10:14:47;;;;;;;16.67;8.85;;;;;;;-1.24;100.00;98171.41;5150733;27;20067;-49
2022/11/22 10:17:24;;;;;;;14.90;7.40;;;;;;;-1.01;100.00;98185.56;5151146;27;20150;-47
2022/11/22 10:19:57;;;;;;;19.17;8.68;;;;;;;-1.02;100.00;98151.69;5150918;27;20094;-52
2022/11/22 10:22:27;;;;;;;18.05;8.52;;;;;;;-0.95;100.00;98128.59;5150784;27;20057;-51
2022/11/22 10:24:54;;;;;;;15.27;8.95;;;;;;;-0.82;100.00;98126.09;5150892;27;20055;-48
2022/11/22 10:27:20;;;;;;;18.67;10.20;;;;;;;-0.90;100.00;98095.38;5150933;27;20078;-49
2022/11/22 10:29:54;;;;;;;13.93;7.40;;;;;;;-0.66;100.00;98086.06;5150600;27;20485;-48
2022/11/22 10:32:26;;;;;;;;;;;;;;;-0.78;100.00;98044.41;5151455;27;20055;-49
2022/11/22 10:35:14;;;;;;;13.93;8.32;;;;;;;-1.13;100.00;98024.78;5150504;27;20389;-52
2022/11/22 10:37:52;;;;;;;17.27;9.52;;;;;;;-1.05;100.00;98042.03;5150696;27;20528;-48
2022/11/22 10:40:25;;;;;;;17.52;9.30;;;;;;;-1.14;100.00;98070.81;5150313;27;20506;-52
2022/11/22 10:43:10;;;;;;;19.23;7.85;;;;;;;-0.92;100.00;98072.59;5151041;27;20061;-48
2022/11/22 10:45:42;;;;;;;15.45;9.18;;;;;;;-0.86;100.00;98058.66;5150446;27;20138;-49
2022/11/22 10:48:21;;;;;;;15.43;8.48;;;;;;;-0.73;100.00;98030.00;5150562;27;20050;-47
2022/11/22 10:50:58;;;;;;;19.50;10.00;;;;;;;-0.65;100.00;97983.44;5150517;27;20047;-50
2022/11/22 10:53:34;;;;;;;21.23;8.75;;;;;;;-0.54;100.00;97957.75;5150189;27;20057;-48
2022/11/22 10:56:08;;;;;;;17.17;9.00;;;;;;;-0.65;100.00;97929.59;5150571;27;20053;-49
2022/11/22 10:58:46;;;;;;;17.25;8.95;;;;;;;-0.86;100.00;97932.19;5150579;27;20051;-49
2022/11/22 11:01:23;;;;;;;17.25;8.85;;;;;;;-0.81;100.00;97961.63;5150381;27;20137;-49
2022/11/22 11:03:53;;;;;;;15.65;8.68;;;;;;;-0.66;100.00;97963.03;5150317;27;20051;-49
2022/11/22 11:06:25;;;;;;;14.48;8.35;;;;;;;-1.18;100.00;97911.97;5149965;27;20049;-52
2022/11/22 11:08:55;;;;;;;16.45;8.43;;;;;;;-1.02;100.00;97983.00;5150383;27;20138;-52
2022/11/22 11:11:24;;;;;;;15.63;8.23;;;;;;;-1.07;100.00;98011.97;5151342;27;20444;-49
2022/11/22 11:13:54;;;;;;;16.98;8.00;;;;;;;-0.96;100.00;98024.78;5153783;27;20054;-48
2022/11/22 11:16:25;;;;;;;18.13;8.43;;;;;;;-0.86;100.00;97994.09;5153696;27;20057;-51
2022/11/22 11:18:55;;;;;;;14.45;7.97;;;;;;;-0.90;100.00;98003.91;5153825;27;20047;-50
2022/11/22 11:21:21;;;;;;;13.90;8.18;;;;;;;-0.90;100.00;98003.09;5153753;27;20043;-51
2022/11/22 11:23:47;;;;;;;17.17;8.80;;;;;;;-0.90;100.00;98013.84;5154049;27;20169;-51
2022/11/22 11:26:25;;;;;;;14.80;8.07;;;;;;;-1.07;100.00;97972.41;5153520;27;20544;-50
2022/11/22 11:29:30;;;;;;;14.15;7.55;;;;;;;-1.03;100.00;97975.28;5153333;27;20092;-50
2022/11/22 11:32:10;;;;;;;18.92;9.45;;;;;;;-1.05;100.00;97985.53;5153204;27;20558;-48